Time;durP1;ratioP1;P1;durP2;ratioP2;P2;SDS_P1;SDS_P2;PMS_P1;PMS_P2;Temp;Humidity;BMP_temperature;BMP_pressure;BME280_temperature;BME280_humidity;BME280_pressure;Samples;Min_cycle;Max_cycle;Signal;HPM_P1;HPM_P2
2023/02/19 00:01:36;;;;;;;11.30;4.00;;;;;;;6.02;55.39;99319.42;107795;1257;61565;-84
2023/02/19 00:04:08;;;;;;;7.60;3.90;;;;;;;6.03;55.36;99323.31;107800;1257;73806;-81
2023/02/19 00:06:35;;;;;;;9.90;4.00;;;;;;;6.03;55.22;99327.13;107787;1257;70997;-78
2023/02/19 00:09:04;;;;;;;7.80;3.80;;;;;;;6.04;55.17;99327.17;107837;1257;73762;-78
2023/02/19 00:11:33;;;;;;;10.40;4.00;;;;;;;6.05;55.08;99321.04;107800;1263;61131;-79
2023/02/19 00:14:00;;;;;;;9.20;3.80;;;;;;;6.08;55.02;99321.11;107812;1258;61203;-82
2023/02/19 00:16:29;;;;;;;11.30;3.90;;;;;;;6.08;54.97;99329.44;107833;1260;75930;-81
2023/02/19 00:18:58;;;;;;;8.90;3.50;;;;;;;6.07;54.91;99323.54;107858;1257;72781;-80
2023/02/19 00:21:25;;;;;;;11.20;3.90;;;;;;;6.05;54.93;99324.91;107831;1257;73097;-80
2023/02/19 00:23:53;;;;;;;9.90;3.80;;;;;;;6.03;54.99;99324.21;107828;1257;60367;-79
2023/02/19 00:26:20;;;;;;;10.90;3.50;;;;;;;6.01;54.99;99327.90;107776;1257;61242;-78
2023/02/19 00:28:49;;;;;;;11.50;4.00;;;;;;;6.00;55.00;99332.52;107966;1258;73907;-82
2023/02/19 00:31:33;;;;;;;9.10;3.90;;;;;;;6.01;55.06;99329.71;107523;1257;417571;-80
2023/02/19 00:34:04;;;;;;;9.50;3.60;;;;;;;6.00;55.05;99327.38;107784;1257;72283;-80
2023/02/19 00:36:31;;;;;;;10.30;3.60;;;;;;;5.99;55.00;99332.34;107840;1260;61132;-80
2023/02/19 00:38:58;;;;;;;8.30;3.60;;;;;;;5.97;54.98;99329.67;107817;1257;61105;-80
2023/02/19 00:41:26;;;;;;;9.70;3.40;;;;;;;5.94;55.03;99328.40;107827;1260;74819;-80
2023/02/19 00:43:57;;;;;;;12.30;3.30;;;;;;;5.90;55.09;99328.61;107821;1257;73780;-79
2023/02/19 00:46:29;;;;;;;7.50;3.50;;;;;;;5.87;55.07;99331.23;107775;1257;73777;-79
2023/02/19 00:48:56;;;;;;;9.60;3.20;;;;;;;5.86;55.12;99337.77;107822;1257;61095;-80
2023/02/19 00:51:25;;;;;;;12.40;3.40;;;;;;;5.85;55.15;99338.92;107906;1257;61237;-81
2023/02/19 00:53:52;;;;;;;10.00;3.40;;;;;;;5.83;55.18;99334.30;107834;1256;74556;-80
2023/02/19 00:56:19;;;;;;;10.00;3.30;;;;;;;5.82;55.14;99334.30;107810;1257;73025;-80
2023/02/19 00:58:46;;;;;;;7.20;2.70;;;;;;;5.80;55.24;99336.65;107801;1257;73374;-80
2023/02/19 01:01:13;;;;;;;10.40;3.60;;;;;;;5.75;55.32;99337.73;107785;1257;61410;-80
2023/02/19 01:03:40;;;;;;;9.90;3.80;;;;;;;5.72;55.42;99339.36;107766;1257;61128;-78
2023/02/19 01:06:08;;;;;;;9.90;3.40;;;;;;;5.69;55.53;99342.05;107864;1257;74043;-79
2023/02/19 01:08:36;;;;;;;9.70;3.50;;;;;;;5.65;55.68;99343.82;107757;1257;73497;-77
2023/02/19 01:11:04;;;;;;;8.20;3.70;;;;;;;5.61;55.80;99349.08;107741;1263;72613;-82
2023/02/19 01:13:32;;;;;;;9.70;3.70;;;;;;;5.58;55.97;99352.66;107776;1257;61281;-79
2023/02/19 01:16:23;;;;;;;9.60;3.60;;;;;;;5.58;56.09;99350.48;107761;1260;61214;-79
2023/02/19 01:18:52;;;;;;;10.60;4.00;;;;;;;5.57;56.31;99360.92;107742;1257;72840;-80
2023/02/19 01:21:21;;;;;;;10.60;3.80;;;;;;;5.56;56.22;99357.41;107807;1257;71996;-80
2023/02/19 01:23:49;;;;;;;10.60;3.50;;;;;;;5.56;56.23;99363.60;107752;1262;72937;-81
2023/02/19 01:26:18;;;;;;;8.30;3.60;;;;;;;5.56;56.31;99360.59;107744;1257;62068;-80
2023/02/19 01:28:47;;;;;;;10.50;3.50;;;;;;;5.58;56.36;99367.13;107816;1259;61209;-79
2023/02/19 01:31:19;;;;;;;9.50;3.70;;;;;;;5.58;56.35;99367.96;107764;1256;74237;-81
2023/02/19 01:33:46;;;;;;;;;;;;;;;5.58;56.50;99363.15;107905;1257;72670;-81
2023/02/19 01:36:14;;;;;;;10.20;4.00;;;;;;;5.57;56.45;99362.92;107758;1260;72494;-81
2023/02/19 01:38:40;;;;;;;10.60;4.30;;;;;;;5.55;56.55;99359.10;107734;1257;61505;-79
2023/02/19 01:41:10;;;;;;;8.20;3.40;;;;;;;5.54;56.66;99356.70;107729;1257;61317;-79
2023/02/19 01:44:10;;;;;;;11.70;3.70;;;;;;;5.50;56.75;99364.94;107741;1257;75718;-79
2023/02/19 01:46:38;;;;;;;8.10;3.70;;;;;;;5.50;56.75;99371.45;107861;1256;73010;-81
2023/02/19 01:49:18;;;;;;;11.90;4.00;;;;;;;5.49;56.84;99371.08;107647;1260;72421;-81
2023/02/19 01:51:48;;;;;;;10.60;4.40;;;;;;;5.49;56.94;99375.73;107752;1257;61132;-82
2023/02/19 01:54:19;;;;;;;8.40;4.20;;;;;;;5.49;57.04;99371.92;107686;1257;61308;-80
2023/02/19 01:57:00;;;;;;;10.50;3.70;;;;;;;5.49;57.00;99368.84;107759;1257;75632;-79
2023/02/19 01:59:28;;;;;;;8.00;3.80;;;;;;;5.48;57.14;99370.64;107728;1257;73059;-82
2023/02/19 02:01:56;;;;;;;8.50;3.50;;;;;;;5.46;57.16;99374.33;107755;1257;73651;-78
2023/02/19 02:04:23;;;;;;;12.60;3.80;;;;;;;5.44;57.23;99377.81;107802;1261;61191;-80
2023/02/19 02:06:54;;;;;;;9.80;3.50;;;;;;;5.44;57.34;99383.00;107828;1257;61107;-80
2023/02/19 02:12:12;;;;;;;11.70;4.10;;;;;;;5.40;57.55;99388.37;107800;1257;74002;-81
2023/02/19 02:14:42;;;;;;;9.40;3.80;;;;;;;5.41;57.53;99383.02;107743;1257;73782;-79
2023/02/19 02:17:29;;;;;;;9.20;3.70;;;;;;;5.41;57.61;99383.66;107741;1256;61369;-79
2023/02/19 02:20:21;;;;;;;9.70;3.80;;;;;;;5.39;57.73;99393.45;107814;1257;61109;-79
2023/02/19 02:22:54;;;;;;;;;;;;;;;5.41;57.79;99402.83;107744;1257;74677;-81
2023/02/19 02:25:46;;;;;;;9.40;3.80;;;;;;;5.41;57.88;99405.64;107865;1257;72075;-83
2023/02/19 02:28:36;;;;;;;10.90;4.20;;;;;;;5.40;57.90;99412.99;107806;1261;72726;-80
2023/02/19 02:31:05;;;;;;;13.10;4.10;;;;;;;5.38;58.05;99412.61;107641;1258;61204;-80
2023/02/19 02:33:38;;;;;;;13.00;4.30;;;;;;;5.38;58.08;99418.64;107864;1257;61253;-80
2023/02/19 02:36:11;;;;;;;9.60;3.60;;;;;;;5.39;58.11;99417.05;107728;1257;75807;-79
2023/02/19 02:38:40;;;;;;;11.00;3.80;;;;;;;5.42;58.12;99418.20;107640;1256;72821;-80
2023/02/19 02:41:07;;;;;;;8.70;3.60;;;;;;;5.44;58.01;99421.83;107736;1257;72462;-79
2023/02/19 02:43:35;;;;;;;9.80;3.80;;;;;;;5.43;58.09;99424.03;107682;1257;61198;-79
2023/02/19 02:46:03;;;;;;;10.20;3.60;;;;;;;5.42;58.10;99424.46;107785;1257;61332;-79
2023/02/19 02:48:45;;;;;;;10.60;3.90;;;;;;;5.40;58.17;99426.67;107743;1257;76009;-79
2023/02/19 02:51:22;;;;;;;10.60;3.70;;;;;;;5.38;58.13;99424.00;107836;1257;72985;-78
2023/02/19 02:56:59;;;;;;;9.40;3.90;;;;;;;5.41;58.26;99427.88;107724;1257;62071;-79
2023/02/19 02:59:30;;;;;;;10.00;3.90;;;;;;;5.42;58.34;99435.46;107827;1257;59313;-81
2023/02/19 03:02:11;;;;;;;9.30;3.80;;;;;;;5.40;58.38;99440.85;107780;1257;73995;-79
2023/02/19 03:07:54;;;;;;;10.50;4.00;;;;;;;5.35;58.32;99449.81;107649;1257;70858;-81
2023/02/19 03:10:25;;;;;;;9.00;3.70;;;;;;;5.30;58.55;99454.68;107716;1258;61294;-79
2023/02/19 03:21:16;;;;;;;11.10;4.00;;;;;;;4.98;59.23;99467.88;107621;1261;72056;-82
2023/02/19 03:26:33;;;;;;;9.30;3.70;;;;;;;4.83;59.45;99468.71;107559;1257;61097;-81
2023/02/19 03:29:24;;;;;;;9.90;4.00;;;;;;;4.77;59.73;99467.50;107774;1257;75445;-81
2023/02/19 03:32:16;;;;;;;11.20;4.00;;;;;;;4.69;59.97;99464.02;107673;1257;73981;-81
2023/02/19 03:34:47;;;;;;;12.90;4.50;;;;;;;4.63;60.20;99475.05;107809;1257;72718;-81
2023/02/19 03:37:41;;;;;;;12.10;4.20;;;;;;;4.57;60.43;99476.02;107758;1257;60895;-78
2023/02/19 03:40:08;;;;;;;9.10;4.50;;;;;;;4.51;60.56;99475.11;107764;1257;61122;-79
2023/02/19 03:42:41;;;;;;;7.10;3.30;;;;;;;4.46;60.76;99475.09;107845;1257;74916;-78
2023/02/19 03:45:18;;;;;;;10.80;4.20;;;;;;;4.40;60.97;99481.70;107817;1257;73679;-80
2023/02/19 03:48:09;;;;;;;10.40;3.50;;;;;;;4.34;61.02;99482.09;107857;1260;73569;-80
2023/02/19 03:51:14;;;;;;;8.50;3.50;;;;;;;4.28;61.40;99487.89;107714;1257;61096;-80
2023/02/19 03:53:47;;;;;;;11.50;4.00;;;;;;;4.24;61.46;99495.27;107801;1257;61204;-80
2023/02/19 03:56:24;;;;;;;12.00;4.10;;;;;;;4.21;61.84;99503.20;107842;1257;74575;-81
2023/02/19 03:58:54;;;;;;;10.50;3.80;;;;;;;4.18;62.01;99506.70;107794;1258;71883;-80
2023/02/19 04:01:30;;;;;;;10.30;3.80;;;;;;;4.15;62.19;99507.89;107800;1256;72299;-80
2023/02/19 04:04:03;;;;;;;10.50;4.00;;;;;;;4.16;62.55;99511.54;107841;1257;61299;-78
2023/02/19 04:06:32;;;;;;;10.10;4.20;;;;;;;4.18;62.48;99507.88;107577;1257;61074;-78
2023/02/19 04:09:01;;;;;;;9.70;4.20;;;;;;;4.20;62.59;99508.34;107658;1258;75527;-77
2023/02/19 04:11:29;;;;;;;8.70;3.60;;;;;;;4.22;62.68;99511.38;107860;1258;71983;-80
2023/02/19 04:14:02;;;;;;;12.00;3.90;;;;;;;4.24;62.63;99507.95;107792;1260;73869;-79
2023/02/19 04:16:29;;;;;;;11.60;4.00;;;;;;;4.23;62.60;99504.09;107808;1258;61257;-78
2023/02/19 04:19:08;;;;;;;7.20;3.80;;;;;;;4.20;62.59;99506.52;107778;1257;62003;-79
2023/02/19 04:21:35;;;;;;;11.60;3.50;;;;;;;4.14;62.66;99507.23;107804;1257;73955;-80
2023/02/19 04:24:06;;;;;;;9.60;3.80;;;;;;;4.08;62.78;99507.98;107699;1257;72966;-79
2023/02/19 04:26:34;;;;;;;7.50;3.60;;;;;;;4.02;62.83;99506.45;107860;1258;72833;-79
2023/02/19 04:29:01;;;;;;;9.30;3.80;;;;;;;3.95;62.98;99504.66;107824;1257;61083;-79
2023/02/19 04:31:29;;;;;;;11.50;4.50;;;;;;;3.89;63.07;99514.80;107803;1257;61337;-80
2023/02/19 04:33:56;;;;;;;11.40;4.70;;;;;;;3.82;63.31;99518.85;107758;1257;75950;-79
2023/02/19 04:36:22;;;;;;;9.50;3.60;;;;;;;3.76;63.51;99523.95;107762;1257;71465;-79
2023/02/19 04:38:49;;;;;;;9.10;3.60;;;;;;;3.70;63.79;99529.69;107767;1257;71898;-79
2023/02/19 04:41:17;;;;;;;9.90;3.80;;;;;;;3.67;64.05;99533.79;107796;1257;61155;-79
2023/02/19 04:43:44;;;;;;;9.00;4.00;;;;;;;3.65;64.23;99531.85;107822;1257;61079;-79
2023/02/19 04:46:11;;;;;;;7.50;3.80;;;;;;;3.62;64.41;99541.41;107793;1258;74308;-78
2023/02/19 04:48:38;;;;;;;11.00;4.40;;;;;;;3.59;64.54;99547.60;107849;1257;76199;-79
2023/02/19 04:51:06;;;;;;;11.90;4.20;;;;;;;3.56;64.60;99545.57;107832;1257;73043;-79
2023/02/19 04:53:33;;;;;;;11.50;4.50;;;;;;;3.51;64.67;99544.55;107765;1257;62484;-79
2023/02/19 04:56:05;;;;;;;13.70;4.60;;;;;;;3.48;64.87;99554.02;107825;1257;60831;-80
2023/02/19 04:58:33;;;;;;;;;;;;;;;3.44;64.89;99554.85;107787;1257;74081;-79
2023/02/19 05:01:00;;;;;;;8.90;3.70;;;;;;;3.41;65.13;99555.37;107820;1256;73761;-80
2023/02/19 05:03:26;;;;;;;8.70;4.30;;;;;;;3.38;65.38;99557.90;107816;1257;73902;-79
2023/02/19 05:05:54;;;;;;;12.30;4.60;;;;;;;3.35;65.42;99558.16;107793;1257;61487;-80
2023/02/19 05:08:20;;;;;;;10.00;4.50;;;;;;;3.32;65.33;99560.11;107855;1257;61464;-80
2023/02/19 05:10:47;;;;;;;9.90;4.10;;;;;;;3.29;65.62;99561.05;107818;1257;74517;-81
2023/02/19 05:13:17;;;;;;;10.10;4.50;;;;;;;3.26;65.64;99571.17;107803;1257;72930;-78
2023/02/19 05:16:14;;;;;;;8.20;3.90;;;;;;;3.24;65.94;99580.22;107820;1257;72120;-81
2023/02/19 05:18:42;;;;;;;14.00;4.40;;;;;;;3.23;66.36;99582.89;107827;1257;61112;-79
2023/02/19 05:21:09;;;;;;;10.30;4.30;;;;;;;3.24;66.65;99581.53;107818;1257;61015;-79
2023/02/19 05:23:37;;;;;;;9.00;4.20;;;;;;;3.25;66.80;99584.27;107846;1257;75616;-79
2023/02/19 05:26:10;;;;;;;9.30;3.90;;;;;;;3.28;67.04;99587.41;107839;1258;73740;-80
2023/02/19 05:28:38;;;;;;;10.70;4.00;;;;;;;3.32;67.10;99589.70;107794;1257;73619;-79
2023/02/19 05:31:06;;;;;;;8.70;4.10;;;;;;;3.35;67.37;99587.57;107745;1258;61481;-79
2023/02/19 05:33:36;;;;;;;11.50;4.40;;;;;;;3.40;67.43;99582.95;107891;1257;61104;-79
2023/02/19 05:36:08;;;;;;;13.30;4.60;;;;;;;3.44;67.56;99586.13;107891;1257;74074;-80
2023/02/19 05:38:36;;;;;;;10.00;4.20;;;;;;;3.50;67.41;99587.86;107811;1257;72651;-80
2023/02/19 05:41:18;;;;;;;12.80;4.70;;;;;;;3.55;67.42;99588.96;107825;1257;73080;-80
2023/02/19 05:43:45;;;;;;;11.00;4.20;;;;;;;3.61;67.40;99594.24;107936;1256;61248;-80
2023/02/19 05:46:14;;;;;;;9.40;4.30;;;;;;;3.66;67.40;99594.88;107979;1257;60443;-79
2023/02/19 05:48:42;;;;;;;12.30;4.00;;;;;;;3.71;67.18;99602.69;108308;1257;74448;-80
2023/02/19 05:51:14;;;;;;;8.50;3.50;;;;;;;3.77;67.15;99606.22;108402;1257;72661;-79
2023/02/19 05:53:41;;;;;;;10.80;4.00;;;;;;;3.83;67.12;99607.77;108350;1258;71404;-80
2023/02/19 05:56:36;;;;;;;8.80;4.00;;;;;;;3.90;66.99;99608.23;108388;1257;61129;-79
2023/02/19 05:59:16;;;;;;;9.20;4.10;;;;;;;3.97;66.92;99610.95;108390;1260;61338;-80
2023/02/19 06:01:43;;;;;;;9.80;3.90;;;;;;;4.04;66.75;99611.43;108477;1257;74340;-80
2023/02/19 06:04:11;;;;;;;8.80;3.80;;;;;;;4.12;66.54;99616.27;108458;1257;71840;-80
2023/02/19 06:06:39;;;;;;;9.40;3.50;;;;;;;4.19;66.36;99616.40;108425;1257;72702;-80
2023/02/19 06:09:06;;;;;;;9.90;3.70;;;;;;;4.26;66.20;99619.55;108373;1257;60899;-78
2023/02/19 06:11:33;;;;;;;9.00;3.40;;;;;;;4.33;66.03;99615.59;108209;1256;61102;-79
2023/02/19 06:14:00;;;;;;;7.90;3.30;;;;;;;4.40;65.84;99623.17;108573;1255;72994;-80
2023/02/19 06:16:31;;;;;;;10.40;3.60;;;;;;;4.47;65.48;99623.01;108635;1256;70432;-78
2023/02/19 06:19:03;;;;;;;8.40;3.30;;;;;;;4.56;65.03;99630.20;108479;1257;72486;-83
2023/02/19 06:21:31;;;;;;;12.40;3.90;;;;;;;4.62;64.63;99624.73;108444;1257;60056;-81
2023/02/19 06:24:05;;;;;;;8.40;3.60;;;;;;;4.68;64.35;99621.08;108462;1256;60555;-81
2023/02/19 06:26:35;;;;;;;9.50;3.60;;;;;;;4.76;64.02;99615.06;108435;1257;74631;-82
2023/02/19 06:29:02;;;;;;;8.80;3.40;;;;;;;4.85;63.76;99614.55;108154;1257;71937;-81
2023/02/19 06:31:32;;;;;;;10.50;3.90;;;;;;;4.90;63.17;99610.34;107874;1256;72714;-80
2023/02/19 06:34:02;;;;;;;8.30;3.40;;;;;;;4.98;62.92;99607.91;108064;1257;61143;-81
2023/02/19 06:36:30;;;;;;;9.50;3.20;;;;;;;5.04;62.61;99612.02;107906;1258;59781;-81
2023/02/19 06:39:02;;;;;;;9.70;3.40;;;;;;;5.09;62.19;99617.18;107860;1258;73557;-81
2023/02/19 06:41:29;;;;;;;9.50;3.50;;;;;;;5.15;61.91;99611.02;107747;1257;73238;-78
2023/02/19 06:43:57;;;;;;;10.00;3.50;;;;;;;5.20;61.40;99611.23;107831;1259;74138;-82
2023/02/19 06:46:24;;;;;;;7.70;3.40;;;;;;;5.23;60.94;99606.66;107770;1257;62415;-82
2023/02/19 06:48:51;;;;;;;10.10;3.20;;;;;;;5.25;60.77;99609.39;107923;1260;61132;-79
2023/02/19 06:51:25;;;;;;;11.80;4.20;;;;;;;5.26;60.52;99613.32;107913;1257;75007;-83
2023/02/19 06:53:54;;;;;;;7.00;3.20;;;;;;;5.29;60.56;99617.29;107907;1256;73712;-83
2023/02/19 06:56:30;;;;;;;9.70;3.40;;;;;;;5.32;60.51;99620.08;107838;1258;71628;-80
2023/02/19 06:58:59;;;;;;;8.90;3.40;;;;;;;5.39;60.69;99617.09;107812;1258;61246;-79
2023/02/19 07:01:32;;;;;;;10.10;3.90;;;;;;;5.42;60.95;99617.34;108043;1257;60022;-79
2023/02/19 07:04:01;;;;;;;9.50;3.90;;;;;;;5.46;61.18;99616.61;107835;1258;75016;-79
2023/02/19 07:06:28;;;;;;;10.00;4.10;;;;;;;5.51;61.21;99619.26;107815;1257;71882;-78
2023/02/19 07:08:59;;;;;;;9.30;3.80;;;;;;;5.55;61.28;99613.69;107834;1257;73800;-81
2023/02/19 07:11:29;;;;;;;8.20;3.80;;;;;;;5.61;61.33;99614.61;107665;1258;61119;-78
2023/02/19 07:13:56;;;;;;;12.90;4.20;;;;;;;5.66;61.20;99612.56;107859;1257;61082;-79
2023/02/19 07:16:23;;;;;;;7.70;3.40;;;;;;;5.70;61.21;99613.61;107809;1257;75901;-80
2023/02/19 07:18:51;;;;;;;8.40;3.70;;;;;;;5.75;61.17;99610.48;107750;1257;72495;-80
2023/02/19 07:21:21;;;;;;;8.20;3.60;;;;;;;5.83;61.04;99610.30;107733;1260;73420;-78
2023/02/19 07:23:48;;;;;;;10.50;3.50;;;;;;;5.91;60.88;99607.86;107679;1257;61243;-81
2023/02/19 07:26:16;;;;;;;9.00;3.60;;;;;;;6.01;60.85;99608.66;107811;1257;61245;-78
2023/02/19 07:28:43;;;;;;;9.20;3.70;;;;;;;6.10;60.76;99612.63;107749;1257;73667;-83
2023/02/19 07:31:10;;;;;;;8.40;4.00;;;;;;;6.17;60.55;99614.13;107780;1259;71713;-82
2023/02/19 07:33:42;;;;;;;9.10;3.90;;;;;;;6.26;60.28;99613.84;107742;1257;73773;-81
2023/02/19 07:36:09;;;;;;;8.40;3.40;;;;;;;6.26;59.96;99611.23;107770;1256;61565;-81
2023/02/19 07:38:36;;;;;;;8.90;3.60;;;;;;;6.27;59.85;99617.83;107861;1256;61143;-86
2023/02/19 07:41:03;;;;;;;9.20;3.50;;;;;;;6.31;59.81;99619.57;107772;1257;74029;-84
2023/02/19 07:43:33;;;;;;;8.00;3.50;;;;;;;6.37;59.83;99618.45;107736;1256;72843;-82
2023/02/19 07:46:12;;;;;;;11.50;3.70;;;;;;;6.39;59.27;99621.43;107805;1257;71733;-84
2023/02/19 07:48:43;;;;;;;9.20;3.50;;;;;;;6.34;58.81;99627.48;107758;1256;61257;-86
2023/02/19 07:51:13;;;;;;;6.90;3.30;;;;;;;6.33;58.53;99630.49;107850;1257;61013;-86
2023/02/19 07:53:40;;;;;;;7.60;3.50;;;;;;;6.33;58.38;99626.64;107808;1257;73691;-81
2023/02/19 07:56:09;;;;;;;9.90;3.30;;;;;;;6.36;58.27;99621.88;108052;1256;73196;-87
2023/02/19 07:58:36;;;;;;;9.40;3.50;;;;;;;6.41;58.15;99622.03;107851;1259;73864;-80
2023/02/19 08:01:18;;;;;;;5.80;2.80;;;;;;;6.44;57.98;99624.17;107889;1257;62050;-85
2023/02/19 08:03:51;;;;;;;12.40;4.10;;;;;;;6.47;57.31;99625.61;107888;1256;61114;-84
2023/02/19 08:06:22;;;;;;;7.60;3.10;;;;;;;6.52;56.88;99625.69;107790;1260;74661;-80
2023/02/19 08:08:56;;;;;;;6.80;2.70;;;;;;;6.57;56.05;99624.50;107819;1257;73524;-88
2023/02/19 08:15:05;;;;;;;8.90;2.90;;;;;;;6.85;56.48;99618.55;107788;1257;62006;-81
2023/02/19 08:17:50;;;;;;;7.30;2.90;;;;;;;7.06;56.02;99626.01;107799;1256;61127;-80
2023/02/19 08:20:18;;;;;;;8.10;3.10;;;;;;;7.20;55.43;99629.61;107826;1260;74526;-82
2023/02/19 08:22:45;;;;;;;6.60;2.70;;;;;;;7.25;54.62;99636.59;107840;1257;72567;-80
2023/02/19 08:25:11;;;;;;;8.00;2.80;;;;;;;7.09;53.75;99639.15;107852;1257;73924;-80
2023/02/19 08:27:38;;;;;;;7.90;3.30;;;;;;;6.92;54.16;99634.89;107852;1260;61210;-82
2023/02/19 08:30:09;;;;;;;7.90;2.60;;;;;;;6.86;54.49;99640.75;107859;1256;61080;-83
2023/02/19 08:32:37;;;;;;;8.20;3.20;;;;;;;6.88;54.49;99647.30;107838;1257;74422;-83
2023/02/19 08:35:05;;;;;;;8.60;3.30;;;;;;;6.92;54.61;99638.63;107890;1257;72379;-83
2023/02/19 08:37:32;;;;;;;7.50;2.90;;;;;;;6.91;54.21;99648.06;107976;1259;71634;-77
2023/02/19 08:39:59;;;;;;;9.10;2.90;;;;;;;6.85;54.39;99655.14;107957;1257;61356;-82
2023/02/19 08:42:27;;;;;;;8.50;3.30;;;;;;;6.77;54.63;99652.52;107879;1257;61176;-80
2023/02/19 08:44:55;;;;;;;7.70;3.30;;;;;;;6.75;54.92;99647.94;107834;1257;75913;-84
2023/02/19 08:47:22;;;;;;;7.30;3.30;;;;;;;6.73;54.95;99653.71;107857;1257;73684;-83
2023/02/19 08:49:48;;;;;;;7.60;2.90;;;;;;;6.64;54.92;99641.16;107807;1258;71727;-84
2023/02/19 08:52:15;;;;;;;7.20;3.10;;;;;;;6.51;55.12;99650.98;107859;1257;61204;-85
2023/02/19 08:54:42;;;;;;;6.60;2.90;;;;;;;6.44;55.39;99648.73;107825;1257;61305;-82
2023/02/19 08:57:09;;;;;;;10.40;3.10;;;;;;;6.31;55.14;99659.49;107847;1257;75574;-77
2023/02/19 08:59:36;;;;;;;8.10;3.00;;;;;;;6.17;55.03;99655.96;107814;1257;72076;-84
2023/02/19 09:02:03;;;;;;;9.50;2.90;;;;;;;6.05;55.19;99656.58;107804;1257;70958;-85
2023/02/19 09:04:31;;;;;;;9.20;3.20;;;;;;;5.98;55.47;99659.41;107775;1257;61590;-86
2023/02/19 09:06:58;;;;;;;6.80;2.60;;;;;;;5.95;55.53;99664.89;107795;1257;61324;-84
2023/02/19 09:09:25;;;;;;;7.70;3.10;;;;;;;5.93;55.66;99653.80;107772;1257;74033;-83
2023/02/19 09:11:52;;;;;;;8.40;3.00;;;;;;;5.99;55.65;99656.55;107808;1257;70787;-78
2023/02/19 09:14:21;;;;;;;7.00;2.80;;;;;;;6.03;55.31;99643.30;107801;1257;72913;-78
2023/02/19 09:16:48;;;;;;;9.10;2.80;;;;;;;6.03;54.98;99631.01;107815;1257;61080;-82
2023/02/19 09:19:15;;;;;;;8.20;2.90;;;;;;;6.06;54.97;99639.67;107777;1257;61233;-85
2023/02/19 09:21:42;;;;;;;6.80;2.70;;;;;;;6.05;55.22;99643.21;107823;1259;75764;-80
2023/02/19 09:24:09;;;;;;;9.00;3.30;;;;;;;6.06;55.34;99633.11;107739;1258;74306;-86
2023/02/19 09:26:36;;;;;;;10.00;3.40;;;;;;;6.12;55.63;99635.13;107826;1260;70229;-83
2023/02/19 09:29:05;;;;;;;9.80;3.50;;;;;;;6.19;55.51;99637.90;107822;1257;61303;-83
2023/02/19 09:31:33;;;;;;;10.50;3.10;;;;;;;6.28;55.14;99636.92;107848;1257;61128;-80
2023/02/19 09:34:01;;;;;;;8.40;3.10;;;;;;;6.35;54.87;99632.27;107846;1257;75440;-82
2023/02/19 09:36:28;;;;;;;8.70;3.30;;;;;;;6.42;54.75;99638.48;107864;1257;73937;-86
2023/02/19 09:38:55;;;;;;;5.50;2.60;;;;;;;6.52;54.61;99645.58;107800;1257;72844;-80
2023/02/19 09:41:30;;;;;;;8.00;2.70;;;;;;;6.62;54.22;99646.66;107806;1257;61344;-84
2023/02/19 09:43:58;;;;;;;6.90;2.70;;;;;;;6.68;53.53;99653.25;107751;1257;61006;-82
2023/02/19 09:46:45;;;;;;;10.30;2.80;;;;;;;6.65;53.10;99643.14;107821;1257;75382;-87
2023/02/19 09:49:14;;;;;;;8.00;2.60;;;;;;;6.56;53.12;99640.09;107810;1257;71412;-82
2023/02/19 09:51:44;;;;;;;7.20;2.80;;;;;;;6.46;52.95;99659.91;107786;1259;72148;-83
2023/02/19 09:54:21;;;;;;;9.40;2.90;;;;;;;6.34;52.96;99641.55;107808;1256;61070;-78
2023/02/19 09:56:48;;;;;;;9.10;2.70;;;;;;;6.29;52.98;99630.89;107797;1257;60982;-81
2023/02/19 09:59:19;;;;;;;9.00;3.00;;;;;;;6.25;53.18;99623.23;107710;1257;74099;-83
2023/02/19 10:01:48;;;;;;;9.60;2.90;;;;;;;6.25;53.31;99611.02;107779;1257;72263;-86
2023/02/19 10:04:14;;;;;;;5.50;2.50;;;;;;;6.31;53.05;99603.44;107799;1257;72611;-81
2023/02/19 10:06:43;;;;;;;7.40;2.90;;;;;;;6.35;52.81;99593.65;107758;1257;61197;-82
2023/02/19 10:09:25;;;;;;;7.80;2.70;;;;;;;6.39;52.79;99592.25;107723;1257;60044;-85
2023/02/19 10:11:53;;;;;;;6.90;2.40;;;;;;;6.47;52.93;99591.90;107753;1259;74326;-81
2023/02/19 10:14:27;;;;;;;6.80;2.80;;;;;;;6.55;52.78;99594.45;107776;1257;73262;-79
2023/02/19 10:16:54;;;;;;;9.70;3.10;;;;;;;6.59;52.55;99588.75;107973;1259;70699;-79
2023/02/19 10:19:20;;;;;;;9.50;3.00;;;;;;;6.63;52.37;99589.05;107730;1258;59275;-80
2023/02/19 10:21:48;;;;;;;5.40;2.40;;;;;;;6.66;52.34;99589.02;107739;1256;61150;-80
2023/02/19 10:24:24;;;;;;;7.60;2.60;;;;;;;6.70;52.40;99584.34;107696;1257;72998;-80
2023/02/19 10:26:51;;;;;;;8.30;3.00;;;;;;;6.70;52.01;99585.39;107750;1257;73155;-83
2023/02/19 10:29:20;;;;;;;7.90;3.00;;;;;;;6.71;52.01;99580.67;107709;1258;72895;-84
2023/02/19 10:31:47;;;;;;;8.30;2.50;;;;;;;6.76;51.95;99579.59;107750;1258;60538;-80
2023/02/19 10:34:20;;;;;;;7.20;2.70;;;;;;;6.83;51.75;99575.91;107675;1257;61469;-79
2023/02/19 10:36:49;;;;;;;9.50;2.80;;;;;;;6.88;51.46;99579.71;107804;1257;73688;-83
2023/02/19 10:39:20;;;;;;;8.90;3.00;;;;;;;6.92;51.26;99566.09;107773;1257;73006;-85
2023/02/19 10:41:50;;;;;;;8.10;2.90;;;;;;;6.95;50.56;99567.81;107687;1257;72661;-81
2023/02/19 10:44:28;;;;;;;6.40;2.10;;;;;;;6.97;49.63;99558.05;107693;1258;61229;-82
2023/02/19 10:46:57;;;;;;;9.60;2.60;;;;;;;7.03;49.53;99553.04;107756;1258;61126;-81
2023/02/19 10:49:29;;;;;;;7.90;2.50;;;;;;;7.09;49.14;99541.21;107784;1258;74678;-81
2023/02/19 10:52:01;;;;;;;7.90;2.60;;;;;;;7.17;48.69;99541.69;107795;1260;73469;-81
2023/02/19 10:54:30;;;;;;;7.70;2.80;;;;;;;7.25;48.66;99528.76;107731;1257;71262;-80
2023/02/19 10:57:20;;;;;;;8.20;2.90;;;;;;;7.24;48.45;99522.54;107757;1257;61138;-80
2023/02/19 10:59:50;;;;;;;6.90;2.60;;;;;;;7.23;48.06;99519.20;107693;1257;60790;-80
2023/02/19 11:02:19;;;;;;;8.60;2.40;;;;;;;7.16;47.18;99517.79;107815;1257;73852;-78
2023/02/19 11:05:08;;;;;;;8.20;2.60;;;;;;;7.10;47.74;99515.52;107836;1257;71157;-78
2023/02/19 11:07:40;;;;;;;8.50;2.50;;;;;;;7.04;48.18;99509.29;107815;1258;72838;-80
2023/02/19 11:10:26;;;;;;;10.20;3.00;;;;;;;7.06;48.27;99500.11;107755;1257;61079;-82
2023/02/19 11:13:02;;;;;;;8.90;2.50;;;;;;;7.16;48.30;99487.73;107684;1259;61722;-83
2023/02/19 11:15:31;;;;;;;7.90;2.30;;;;;;;7.23;48.02;99494.17;107814;1259;73432;-82
2023/02/19 11:18:20;;;;;;;7.60;2.40;;;;;;;7.22;47.26;99484.02;107790;1258;72623;-77
2023/02/19 11:20:53;;;;;;;8.80;2.50;;;;;;;7.23;47.70;99483.77;107789;1257;72980;-79
2023/02/19 11:23:33;;;;;;;6.90;2.20;;;;;;;7.26;47.57;99486.27;107790;1258;61327;-78
2023/02/19 11:26:04;;;;;;;7.80;2.50;;;;;;;7.26;47.04;99484.63;107798;1258;61242;-86
2023/02/19 11:28:34;;;;;;;6.10;2.40;;;;;;;7.30;47.43;99487.98;107814;1258;73686;-79
2023/02/19 11:31:23;;;;;;;5.10;2.10;;;;;;;7.33;47.64;99487.61;107797;1257;72564;-84
2023/02/19 11:33:57;;;;;;;7.10;2.00;;;;;;;7.33;46.88;99479.64;107801;1257;73982;-81
2023/02/19 11:36:26;;;;;;;7.80;2.50;;;;;;;7.32;46.51;99480.70;107824;1257;61245;-85
2023/02/19 11:38:58;;;;;;;6.20;2.20;;;;;;;7.35;46.37;99481.83;107758;1259;61149;-79
2023/02/19 11:41:25;;;;;;;7.60;2.30;;;;;;;7.38;46.60;99481.09;107776;1256;75709;-82
2023/02/19 11:44:07;;;;;;;9.10;2.30;;;;;;;7.45;46.21;99482.23;107762;1259;71706;-77
2023/02/19 11:46:49;;;;;;;6.00;1.90;;;;;;;7.59;45.68;99481.98;107725;1262;71621;-79
2023/02/19 11:49:53;;;;;;;5.30;2.20;;;;;;;7.55;45.17;99482.57;107737;1258;61207;-80
2023/02/19 11:52:52;;;;;;;8.90;2.20;;;;;;;7.36;45.29;99477.95;107778;1258;61206;-81
2023/02/19 11:55:44;;;;;;;6.50;2.50;;;;;;;7.27;45.70;99476.28;107799;1258;75991;-80
2023/02/19 11:58:51;;;;;;;7.30;2.50;;;;;;;7.19;45.95;99480.82;107724;1259;72905;-81
2023/02/19 12:01:43;;;;;;;7.80;2.80;;;;;;;7.06;46.60;99480.95;107748;1258;72051;-83
2023/02/19 12:04:49;;;;;;;6.70;3.10;;;;;;;7.03;47.11;99483.25;107744;1258;61315;-82
2023/02/19 12:07:26;;;;;;;7.30;2.60;;;;;;;7.00;47.30;99486.23;107745;1258;61248;-81
2023/02/19 12:10:25;;;;;;;6.50;2.30;;;;;;;6.98;47.42;99493.60;107754;1258;73641;-82
2023/02/19 12:13:07;;;;;;;7.00;2.50;;;;;;;6.97;47.28;99496.99;107775;1258;72697;-85
2023/02/19 12:15:43;;;;;;;8.50;3.10;;;;;;;6.98;47.18;99500.02;107775;1259;72200;-82
2023/02/19 12:18:32;;;;;;;9.40;3.10;;;;;;;7.03;47.47;99495.32;107768;1258;61091;-81